METAR Data
IDs: Format: Raw Decoded Include TAF

Data at: 0102 UTC 06 Dec 2019

KARW 060055Z AUTO 00000KT 10SM CLR 08/06 A3018 RMK AO2
KARW 060035Z AUTO 00000KT 10SM CLR 09/07 A3018 RMK AO2
KARW 060015Z AUTO 00000KT 10SM CLR 09/06 A3017 RMK AO2
KARW 052355Z AUTO 00000KT 7SM CLR 10/06 A3016 RMK AO2
KARW 052335Z AUTO 19004KT 7SM CLR 11/07 A3016 RMK AO2
KARW 052315Z AUTO 19005KT 7SM CLR 11/06 A3015 RMK AO2
KARW 052255Z AUTO 18005KT 7SM CLR 11/06 A3014 RMK AO2
KARW 052235Z AUTO 19006KT 4SM HZ CLR 12/06 A3014 RMK AO2
KARW 052215Z AUTO 19004KT 7SM CLR 13/07 A3013 RMK AO2
KARW 052155Z AUTO 21004KT 7SM CLR 15/05 A3012 RMK AO2
KARW 052135Z AUTO 00000KT 10SM CLR 17/M01 A3011 RMK AO2
KARW 052115Z AUTO 00000KT 7SM CLR 17/00 A3011 RMK AO2
KARW 052055Z AUTO 00000KT 7SM CLR 18/M01 A3010 RMK AO2
KARW 052035Z AUTO 30003KT 5SM HZ CLR 18/M01 A3010 RMK AO2
KARW 052015Z AUTO 28004KT 7SM CLR 18/M01 A3009 RMK AO2
KARW 051955Z AUTO 29003KT 7SM CLR 18/M01 A3009 RMK AO2
KARW 051935Z AUTO 30005KT 7SM CLR 18/M01 A3008 RMK AO2
KARW 051915Z AUTO 34005KT 7SM CLR 18/M01 A3009 RMK AO2
KARW 051855Z AUTO 35004KT 7SM CLR 18/M01 A3009 RMK AO2
KARW 051835Z AUTO 02006KT 7SM CLR 18/00 A3009 RMK AO2
KARW 051815Z AUTO 34007KT 7SM CLR 18/M01 A3009 RMK AO2
KARW 051755Z AUTO 04004KT 7SM CLR 17/00 A3009 RMK AO2
KARW 051735Z AUTO 04005KT 7SM CLR 17/00 A3009 RMK AO2
KARW 051715Z AUTO 03007KT 5SM HZ CLR 17/00 A3010 RMK AO2
KARW 051655Z AUTO 02009KT 10SM CLR 16/01 A3011 RMK AO2
KARW 051635Z AUTO 36009KT 10SM CLR 15/00 A3012 RMK AO2
KARW 051615Z AUTO 01009G14KT 10SM CLR 15/01 A3012 RMK AO2
KARW 051555Z AUTO 35008KT 10SM CLR 14/00 A3012 RMK AO2
KARW 051535Z AUTO 36009KT 10SM CLR 14/00 A3011 RMK AO2
KARW 051515Z AUTO 34007KT 10SM CLR 13/01 A3011 RMK AO2
KARW 051455Z AUTO 32006KT 10SM CLR 12/01 A3010 RMK AO2
KARW 051435Z AUTO 32009KT 10SM CLR 11/02 A3009 RMK AO2
KARW 051415Z AUTO 32011G16KT 10SM CLR 11/02 A3008 RMK AO2
KARW 051355Z AUTO 32008KT 10SM CLR 11/02 A3007 RMK AO2
KARW 051335Z AUTO 31008G14KT 10SM CLR 10/02 A3006 RMK AO2
KARW 051315Z AUTO 30009KT 10SM CLR 08/02 A3005 RMK AO2
KARW 051255Z AUTO 30009KT 10SM CLR 08/02 A3004 RMK AO2
KARW 051235Z AUTO 31009KT 10SM CLR 08/01 A3003 RMK AO2
KARW 051215Z AUTO 31011G15KT 10SM CLR 08/01 A3002 RMK AO2
KARW 051155Z AUTO 30011KT 10SM CLR 08/01 A3001 RMK AO2
KARW 051135Z AUTO 30010KT 10SM CLR 09/01 A3001 RMK AO2
KARW 051115Z AUTO 30010G14KT 10SM CLR 08/01 A3000 RMK AO2
KARW 051055Z AUTO 30010KT 10SM CLR 09/01 A2999 RMK AO2
KARW 051035Z AUTO 29012KT 10SM CLR 08/01 A2998 RMK AO2
KARW 051015Z AUTO 29010G14KT 10SM CLR 08/01 A2996 RMK AO2
KARW 050955Z AUTO 29010KT 10SM CLR 09/01 A2996 RMK AO2
KARW 050935Z AUTO 28008KT 10SM CLR 09/01 A2995 RMK AO2
KARW 050915Z AUTO 29008KT 10SM CLR 09/01 A2995 RMK AO2
KARW 050855Z AUTO 29009KT 10SM CLR 09/01 A2995 RMK AO2
KARW 050835Z AUTO 29008KT 10SM CLR 09/02 A2994 RMK AO2
KARW 050815Z AUTO 28009KT 10SM CLR 10/01 A2994 RMK AO2
KARW 050755Z AUTO 29009G15KT 10SM CLR 10/01 A2994 RMK AO2
KARW 050735Z AUTO 29009KT 10SM CLR 11/01 A2994 RMK AO2
KARW 050715Z AUTO 28009KT 10SM CLR 11/02 A2993 RMK AO2
KARW 050655Z AUTO 27009G15KT 10SM CLR 11/01 A2993 RMK AO2
KARW 050635Z AUTO 27009KT 10SM CLR 11/02 A2993 RMK AO2
KARW 050615Z AUTO 27008KT 10SM CLR 10/02 A2993 RMK AO2
KARW 050555Z AUTO 27007KT 10SM CLR 10/02 A2992 RMK AO2
KARW 050535Z AUTO 27006KT 10SM CLR 10/02 A2993 RMK AO2
KARW 050515Z AUTO 26005KT 10SM CLR 10/02 A2993 RMK AO2
KARW 050455Z AUTO 25006KT 7SM CLR 10/02 A2993 RMK AO2
KARW 050435Z AUTO 24004KT 7SM CLR 10/02 A2992 RMK AO2
KARW 050415Z AUTO 25006KT 10SM CLR 10/02 A2992 RMK AO2
KARW 050355Z AUTO 25007KT 7SM CLR 10/02 A2992 RMK AO2
KARW 050335Z AUTO 26006KT 7SM CLR 11/02 A2992 RMK AO2
KARW 050315Z AUTO 25009KT 7SM CLR 11/02 A2992 RMK AO2
KARW 050255Z AUTO 25009KT 7SM CLR 11/02 A2991 RMK AO2
KARW 050235Z AUTO 24009KT 7SM CLR 11/02 A2991 RMK AO2
KARW 050215Z AUTO 24007KT 7SM CLR 11/02 A2990 RMK AO2
KARW 050155Z AUTO 24007KT 7SM CLR 12/02 A2990 RMK AO2
KARW 050135Z AUTO 24007KT 7SM CLR 12/02 A2990 RMK AO2
KARW 050115Z AUTO 24007KT 7SM CLR 12/02 A2989 RMK AO2
KARW 050055Z AUTO 26009KT 7SM CLR 12/02 A2989 RMK AO2
KARW 050035Z AUTO 24008KT 7SM CLR 12/02 A2987 RMK AO2
KARW 050015Z AUTO 24008KT 7SM CLR 12/02 A2987 RMK AO2
KARW 042355Z AUTO 24007KT 7SM CLR 12/02 A2987 RMK AO2
KARW 042335Z AUTO 26006KT 7SM CLR 12/01 A2986 RMK AO2
KARW 042315Z AUTO 26007KT 7SM CLR 13/01 A2986 RMK AO2
KARW 042255Z AUTO 26009KT 10SM CLR 13/01 A2985 RMK AO2
KARW 042235Z AUTO 26007KT 7SM CLR 14/01 A2983 RMK AO2
KARW 042215Z AUTO 27011G16KT 7SM CLR 15/01 A2983 RMK AO2
KARW 042155Z AUTO 26008KT 5SM HZ CLR 15/01 A2982 RMK AO2
KARW 042135Z AUTO 26011KT 7SM CLR 16/01 A2981 RMK AO2
KARW 042115Z AUTO 27011KT 7SM CLR 16/00 A2980 RMK AO2
KARW 042055Z AUTO 28010G16KT 7SM CLR 16/00 A2981 RMK AO2
KARW 042035Z AUTO 27010G16KT 5SM HZ CLR 17/01 A2980 RMK AO2
KARW 042015Z AUTO 27013G19KT 7SM CLR 17/00 A2980 RMK AO2
KARW 041955Z AUTO 27014G20KT 7SM CLR 17/00 A2980 RMK AO2
KARW 041935Z AUTO 26013G19KT 7SM CLR 17/00 A2980 RMK AO2
KARW 041915Z AUTO 26010G15KT 7SM CLR 16/00 A2980 RMK AO2
KARW 041855Z AUTO 25012G15KT 7SM CLR 16/01 A2980 RMK AO2
KARW 041835Z AUTO 27008G15KT 7SM CLR 16/01 A2980 RMK AO2
KARW 041815Z AUTO 26010G15KT 5SM HZ CLR 15/00 A2981 RMK AO2
KARW 041755Z AUTO 28009KT 5SM HZ CLR 15/01 A2982 RMK AO2
KARW 041735Z AUTO 27009KT 10SM CLR 13/01 A2984 RMK AO2
KARW 041715Z AUTO 29009KT 10SM CLR 13/01 A2985 RMK AO2
KARW 041655Z AUTO 30010KT 10SM CLR 12/01 A2987 RMK AO2
KARW 041635Z AUTO 30011G15KT 10SM CLR 11/01 A2988 RMK AO2
KARW 041615Z AUTO 29012G15KT 10SM CLR 11/01 A2988 RMK AO2
KARW 041555Z AUTO 29010KT 10SM CLR 11/01 A2988 RMK AO2
KARW 041535Z AUTO 30011KT 10SM CLR 10/01 A2989 RMK AO2
KARW 041515Z AUTO 30013KT 10SM CLR 09/00 A2990 RMK AO2
KARW 041455Z AUTO 30009KT 10SM CLR 08/00 A2989 RMK AO2
KARW 041435Z AUTO 30011G15KT 10SM CLR 07/00 A2989 RMK AO2
KARW 041415Z AUTO 29012G15KT 10SM CLR 07/00 A2988 RMK AO2
KARW 041355Z AUTO 29009KT 10SM CLR 06/00 A2988 RMK AO2
KARW 041335Z AUTO 28009G14KT 10SM CLR 06/01 A2987 RMK AO2
KARW 041315Z AUTO 28010G15KT 10SM CLR 05/01 A2987 RMK AO2